This is the latest recevied weather packets stored in our database for station/object OE6ACM-14. If no packets are shown the sender has not sent any weather packets the latest 10 day(s).
| Time | Temp. | Humidity | Pressure | Rain* | Wind** | Luminosity | Snow |
|---|---|---|---|---|---|---|---|
| 1777955825 | 6.67° C | 65% | 923.1 hPa | - | - | - | - |
| 1777955525 | 6.11° C | 66% | 923.2 hPa | - | - | - | - |
| 1777955225 | 6.67° C | 65% | 923.2 hPa | - | - | - | - |
| 1777954925 | 6.67° C | 66% | 923.2 hPa | - | - | - | - |
| 1777954625 | 6.11° C | 65% | 923.2 hPa | - | - | - | - |
| 1777954325 | 7.22° C | 64% | 923.1 hPa | - | - | - | - |
| 1777954025 | 7.22° C | 65% | 923.1 hPa | - | - | - | - |
| 1777953725 | 7.22° C | 65% | 923.2 hPa | - | - | - | - |
| 1777953425 | 6.67° C | 66% | 923.1 hPa | - | - | - | - |
| 1777953125 | 6.67° C | 66% | 923.1 hPa | - | - | - | - |
| 1777952825 | 6.67° C | 66% | 923.1 hPa | - | - | - | - |
| 1777952525 | 6.11° C | 66% | 923.1 hPa | - | - | - | - |
| 1777952225 | 6.67° C | 64% | 923.1 hPa | - | - | - | - |
| 1777951925 | 6.67° C | 66% | 923.1 hPa | - | - | - | - |
| 1777951625 | 6.67° C | 66% | 923.2 hPa | - | - | - | - |
| 1777951325 | 6.11° C | 66% | 923.2 hPa | - | - | - | - |
| 1777951025 | 6.11° C | 65% | 923.3 hPa | - | - | - | - |
| 1777950725 | 6.67° C | 63% | 923.3 hPa | - | - | - | - |
| 1777950425 | 7.22° C | 64% | 923.2 hPa | - | - | - | - |
| 1777950125 | 6.67° C | 65% | 923.2 hPa | - | - | - | - |
| 1777949825 | 6.11° C | 65% | 923.4 hPa | - | - | - | - |
| 1777949525 | 7.22° C | 63% | 923.3 hPa | - | - | - | - |
| 1777949225 | 7.78° C | 62% | 923.3 hPa | - | - | - | - |
| 1777948925 | 7.78° C | 63% | 923.3 hPa | - | - | - | - |
| 1777948625 | 7.22° C | 63% | 923.4 hPa | - | - | - | - |
* Rain since midnight (hover to see other rain measurements)
** Current wind speed in m/s (hover to see current wind gust speed)